Time;durP1;ratioP1;P1;durP2;ratioP2;P2;SDS_P1;SDS_P2;PMS_P1;PMS_P2;Temp;Humidity;BMP_temperature;BMP_pressure;BME280_temperature;BME280_humidity;BME280_pressure;Samples;Min_cycle;Max_cycle;Signal;HPM_P1;HPM_P2
2023/02/05 00:01:50;;;;;;;6.72;4.78;;;;;;;1.88;77.41;100928.09;5028405;28;20504;-80
2023/02/05 00:04:15;;;;;;;7.47;5.18;;;;;;;2.00;77.33;100937.47;5010069;28;20030;-79
2023/02/05 00:06:40;;;;;;;6.70;4.43;;;;;;;2.02;77.17;100949.53;5026988;28;20076;-79
2023/02/05 00:09:06;;;;;;;7.60;4.47;;;;;;;1.90;77.20;100937.47;5011893;28;20064;-79
2023/02/05 00:11:31;;;;;;;6.28;4.40;;;;;;;1.90;77.17;100944.56;4996255;28;20037;-80
2023/02/05 00:13:57;;;;;;;8.52;4.15;;;;;;;1.77;77.46;100931.69;5028890;28;20045;-80
2023/02/05 00:16:23;;;;;;;7.75;4.10;;;;;;;1.40;77.98;100944.72;5011081;28;20101;-80
2023/02/05 00:18:49;;;;;;;6.18;4.30;;;;;;;1.73;77.71;100934.72;5026270;28;20084;-79
2023/02/05 00:21:15;;;;;;;6.47;4.60;;;;;;;1.76;77.07;100921.31;4996063;28;20025;-79
2023/02/05 00:23:41;;;;;;;7.75;4.18;;;;;;;1.91;77.16;100933.88;5029744;28;20065;-79
2023/02/05 00:26:09;;;;;;;5.40;4.25;;;;;;;1.84;76.91;100918.78;5009953;28;20061;-79
2023/02/05 00:28:35;;;;;;;7.15;4.18;;;;;;;1.75;77.19;100917.03;5026538;28;20022;-79
2023/02/05 00:31:06;;;;;;;7.90;4.65;;;;;;;1.77;77.37;100910.63;5027397;28;20289;-79
2023/02/05 00:33:32;;;;;;;10.32;3.65;;;;;;;1.79;77.09;100913.94;5030945;28;20026;-79
2023/02/05 00:35:57;;;;;;;4.85;4.00;;;;;;;1.50;77.59;100906.13;4996479;28;20040;-80
2023/02/05 00:38:22;;;;;;;5.88;4.50;;;;;;;1.53;76.83;100890.03;5030951;28;20099;-79
2023/02/05 00:40:48;;;;;;;6.60;4.50;;;;;;;1.58;77.46;100896.66;5028964;28;20130;-79
2023/02/05 00:43:13;;;;;;;5.95;3.97;;;;;;;1.76;77.16;100880.03;5025381;28;20552;-79
2023/02/05 00:45:38;;;;;;;6.78;3.80;;;;;;;1.84;76.77;100895.94;5023104;28;20034;-80
2023/02/05 00:48:04;;;;;;;5.25;3.80;;;;;;;1.68;77.14;100890.44;5007936;28;20052;-79
2023/02/05 00:50:31;;;;;;;5.10;3.83;;;;;;;1.61;77.58;100881.44;5022598;28;20033;-79
2023/02/05 00:52:56;;;;;;;5.47;4.78;;;;;;;1.68;77.97;100887.81;5025609;28;20061;-80
2023/02/05 00:55:22;;;;;;;5.95;4.60;;;;;;;1.62;77.38;100879.66;5006486;28;20073;-79
2023/02/05 00:57:47;;;;;;;6.13;4.63;;;;;;;1.39;77.11;100895.75;5026190;28;20553;-80
2023/02/05 01:00:13;;;;;;;6.20;4.40;;;;;;;0.94;78.06;100886.72;4993874;28;20117;-79
2023/02/05 01:02:39;;;;;;;9.25;4.68;;;;;;;1.45;78.61;100876.75;5010360;28;20397;-79
2023/02/05 01:05:05;;;;;;;8.05;4.55;;;;;;;1.63;77.88;100857.59;5024565;28;20128;-79
2023/02/05 01:07:30;;;;;;;8.00;4.78;;;;;;;1.75;76.84;100856.50;5028992;28;20029;-81
2023/02/05 01:09:55;;;;;;;8.23;4.82;;;;;;;1.69;77.38;100868.41;5009223;28;20041;-79
2023/02/05 01:12:22;;;;;;;6.00;4.88;;;;;;;1.74;77.10;100870.59;5014465;28;20037;-79
2023/02/05 01:14:47;;;;;;;5.85;4.00;;;;;;;1.58;77.22;100863.28;5004981;28;20300;-79
2023/02/05 01:17:13;;;;;;;10.48;5.05;;;;;;;1.64;76.75;100860.09;5010154;28;20529;-79
2023/02/05 01:19:38;;;;;;;8.38;5.35;;;;;;;1.45;75.96;100855.72;5020849;28;20033;-80
2023/02/05 01:22:04;;;;;;;10.75;6.47;;;;;;;-0.16;78.01;100846.59;4998803;28;20061;-78
2023/02/05 01:24:30;;;;;;;5.90;4.50;;;;;;;0.27;79.48;100851.59;5009160;28;20040;-79
2023/02/05 01:26:57;;;;;;;9.93;5.50;;;;;;;0.98;79.75;100856.56;4994780;28;20030;-79
2023/02/05 01:29:23;;;;;;;10.70;5.28;;;;;;;0.91;79.99;100852.84;5025049;28;20522;-79
2023/02/05 01:31:49;;;;;;;8.55;5.72;;;;;;;-0.22;79.18;100836.63;5001649;28;20029;-78
2023/02/05 01:34:14;;;;;;;10.48;6.40;;;;;;;-0.57;81.52;100841.41;4987799;28;20444;-79
2023/02/05 01:36:39;;;;;;;8.88;5.45;;;;;;;-0.84;82.70;100834.88;5005478;28;20033;-80
2023/02/05 01:39:05;;;;;;;13.68;4.72;;;;;;;-0.70;82.35;100828.50;5004480;28;20175;-80
2023/02/05 01:41:30;;;;;;;7.75;5.55;;;;;;;0.17;82.84;100819.22;5006092;28;20512;-81
2023/02/05 01:44:13;;;;;;;9.70;4.68;;;;;;;1.21;79.92;100815.03;4989129;28;20033;-81
2023/02/05 01:46:43;;;;;;;6.50;4.25;;;;;;;1.28;78.23;100803.81;5026325;28;20044;-80
2023/02/05 01:49:14;;;;;;;7.28;4.78;;;;;;;0.71;79.21;100811.72;5020862;28;20040;-81
2023/02/05 01:51:40;;;;;;;7.20;5.57;;;;;;;1.06;79.75;100793.59;5025239;28;20083;-81
2023/02/05 01:54:07;;;;;;;6.03;4.40;;;;;;;1.70;77.96;100813.97;5023435;28;20037;-81
2023/02/05 01:56:38;;;;;;;7.43;4.45;;;;;;;1.79;77.80;100823.63;5024004;28;20355;-80
2023/02/05 01:59:03;;;;;;;6.90;4.20;;;;;;;1.82;77.49;100805.75;5022015;28;20021;-80
2023/02/05 02:01:30;;;;;;;6.10;4.47;;;;;;;1.76;77.25;100801.06;5021940;28;20363;-80
2023/02/05 02:03:59;;;;;;;7.15;4.70;;;;;;;1.68;78.25;100794.84;5006565;28;20073;-79
2023/02/05 02:06:24;;;;;;;8.52;5.25;;;;;;;2.00;77.41;100806.63;5011316;28;20555;-80
2023/02/05 02:08:50;;;;;;;5.28;4.05;;;;;;;2.03;77.23;100795.00;5009095;28;20034;-80
2023/02/05 02:11:20;;;;;;;6.90;4.30;;;;;;;2.04;77.30;100805.38;5025647;28;20052;-80
2023/02/05 02:13:47;;;;;;;7.45;4.80;;;;;;;1.55;77.24;100800.44;5027109;28;20120;-79
2023/02/05 02:16:14;;;;;;;8.02;5.03;;;;;;;1.30;79.57;100799.25;5025695;28;20156;-80
2023/02/05 02:18:39;;;;;;;6.45;4.40;;;;;;;1.58;78.80;100801.94;5010779;28;20517;-80
2023/02/05 02:21:23;;;;;;;6.68;4.50;;;;;;;2.03;77.61;100797.63;5027939;28;20057;-81
2023/02/05 02:24:04;;;;;;;5.55;3.92;;;;;;;2.08;77.64;100788.28;5023993;28;20029;-80
2023/02/05 02:27:04;;;;;;;5.88;4.35;;;;;;;1.85;78.44;100778.31;5010844;28;20036;-81
2023/02/05 02:29:45;;;;;;;15.07;5.10;;;;;;;1.75;77.24;100777.53;5001640;28;20433;-80
2023/02/05 02:32:30;;;;;;;6.65;4.93;;;;;;;1.33;79.59;100764.75;5014400;28;20044;-80
2023/02/05 02:35:03;;;;;;;8.35;5.32;;;;;;;0.98;79.84;100771.63;5022646;28;20120;-80
2023/02/05 02:37:57;;;;;;;7.38;4.45;;;;;;;1.95;78.60;100765.91;5024805;28;20025;-80
2023/02/05 02:40:33;;;;;;;8.80;4.65;;;;;;;1.31;79.82;100755.38;4994588;28;20052;-80
2023/02/05 02:43:12;;;;;;;8.20;5.15;;;;;;;1.33;78.93;100762.13;5021151;28;20499;-80
2023/02/05 02:45:45;;;;;;;7.60;4.90;;;;;;;1.71;79.60;100752.44;5019512;28;20040;-79
2023/02/05 02:48:13;;;;;;;6.75;4.70;;;;;;;2.13;77.78;100761.53;5004826;28;20037;-80
2023/02/05 02:50:44;;;;;;;5.93;4.43;;;;;;;2.10;77.93;100746.00;5024649;28;20033;-80
2023/02/05 02:53:17;;;;;;;6.10;4.22;;;;;;;2.06;77.89;100758.66;5006438;28;20490;-80
2023/02/05 02:55:45;;;;;;;5.80;4.07;;;;;;;2.01;77.75;100752.19;5022734;28;20034;-81
2023/02/05 02:58:20;;;;;;;8.05;4.43;;;;;;;1.89;78.29;100758.59;5012247;28;20028;-80
2023/02/05 03:00:47;;;;;;;8.95;4.65;;;;;;;1.96;77.79;100735.97;5029314;28;20025;-80
2023/02/05 03:03:16;;;;;;;7.18;4.85;;;;;;;2.11;77.24;100748.50;5028207;28;20100;-80
2023/02/05 03:05:44;;;;;;;6.95;4.93;;;;;;;2.18;77.30;100732.94;5010617;28;20489;-80
2023/02/05 03:08:22;;;;;;;7.93;4.63;;;;;;;2.14;77.27;100732.41;5032212;28;20033;-80
2023/02/05 03:10:55;;;;;;;6.55;4.15;;;;;;;1.81;77.68;100742.72;5014198;28;20064;-80
2023/02/05 03:13:21;;;;;;;7.90;5.50;;;;;;;1.63;77.81;100740.03;5031040;28;20629;-80
2023/02/05 03:15:47;;;;;;;5.15;4.65;;;;;;;1.27;78.75;100732.94;5014091;28;20052;-81
2023/02/05 03:18:14;;;;;;;9.65;4.80;;;;;;;0.71;80.95;100733.72;5027157;28;20049;-80
2023/02/05 03:20:46;;;;;;;5.57;4.28;;;;;;;1.83;79.33;100722.34;5029185;28;20025;-80
2023/02/05 03:23:12;;;;;;;5.13;4.05;;;;;;;2.13;78.35;100719.38;5031393;28;20516;-80
2023/02/05 03:25:37;;;;;;;4.65;3.67;;;;;;;1.96;78.07;100717.56;5008512;28;20037;-80
2023/02/05 03:28:03;;;;;;;4.88;4.35;;;;;;;1.99;78.12;100744.41;5012415;28;20053;-80
2023/02/05 03:30:47;;;;;;;5.72;4.40;;;;;;;2.29;77.30;100730.09;5025417;28;20038;-80
2023/02/05 03:33:42;;;;;;;6.78;4.20;;;;;;;2.46;77.21;100742.47;5015225;28;20033;-80
2023/02/05 03:36:30;;;;;;;5.07;3.97;;;;;;;2.40;77.15;100716.72;5015826;28;20034;-80
2023/02/05 03:39:28;;;;;;;5.53;4.93;;;;;;;1.88;76.97;100733.28;5011580;28;20045;-81
2023/02/05 03:42:35;;;;;;;6.93;4.28;;;;;;;1.00;80.64;100744.22;5003752;28;20041;-80
2023/02/05 03:45:09;;;;;;;7.30;4.15;;;;;;;1.07;82.55;100749.75;5026569;28;20025;-81
2023/02/05 03:47:41;;;;;;;8.60;5.10;;;;;;;1.13;81.02;100750.00;5030294;28;20045;-80
2023/02/05 03:50:35;;;;;;;8.95;5.07;;;;;;;0.62;81.89;100742.44;5031360;28;20507;-79
2023/02/05 03:53:45;;;;;;;6.82;4.65;;;;;;;1.05;82.80;100726.19;4999810;28;20524;-81
2023/02/05 03:56:53;;;;;;;5.30;3.78;;;;;;;1.72;80.31;100733.06;5028764;28;20107;-80
2023/02/05 03:59:20;;;;;;;5.43;3.97;;;;;;;1.77;79.78;100733.47;4991417;28;20043;-80
2023/02/05 04:01:46;;;;;;;6.00;4.22;;;;;;;1.84;79.95;100724.81;5028617;28;20077;-80
2023/02/05 04:04:12;;;;;;;7.07;5.20;;;;;;;1.62;78.72;100729.66;5028920;28;20032;-80
2023/02/05 04:06:38;;;;;;;7.93;4.97;;;;;;;1.91;79.59;100720.63;5026674;28;20021;-80
2023/02/05 04:09:04;;;;;;;7.93;5.75;;;;;;;1.52;79.74;100717.34;5025462;28;20034;-81
2023/02/05 04:11:30;;;;;;;6.63;4.85;;;;;;;2.04;79.62;100728.16;5028094;28;20079;-81
2023/02/05 04:13:55;;;;;;;6.65;4.20;;;;;;;2.15;78.92;100736.69;5012994;28;20030;-81
2023/02/05 04:16:21;;;;;;;6.28;4.38;;;;;;;2.32;78.01;100727.16;5028881;28;20037;-80
2023/02/05 04:18:46;;;;;;;10.05;5.93;;;;;;;0.93;80.00;100722.09;5024771;28;20029;-80
2023/02/05 04:21:11;;;;;;;7.35;5.38;;;;;;;0.77;81.50;100722.66;5023783;28;20482;-79
2023/02/05 04:23:37;;;;;;;5.70;4.68;;;;;;;1.48;82.07;100723.06;5020460;28;20044;-79
2023/02/05 04:26:02;;;;;;;9.60;4.45;;;;;;;1.83;80.57;100710.00;5029821;28;20033;-79
2023/02/05 04:28:27;;;;;;;5.18;4.00;;;;;;;1.95;80.22;100711.44;4995489;28;20065;-80
2023/02/05 04:30:53;;;;;;;10.10;5.20;;;;;;;1.38;79.92;100701.19;5028233;28;20378;-79
2023/02/05 04:33:18;;;;;;;5.95;4.40;;;;;;;1.57;79.58;100708.19;5008991;28;20026;-79
2023/02/05 04:35:44;;;;;;;8.18;4.60;;;;;;;1.59;80.44;100699.19;4991685;28;20544;-79
2023/02/05 04:38:09;;;;;;;6.35;4.70;;;;;;;1.95;80.01;100706.19;5011484;28;20497;-79
2023/02/05 04:40:34;;;;;;;9.70;4.55;;;;;;;2.18;78.99;100707.41;5028304;28;20032;-79
2023/02/05 04:43:00;;;;;;;6.65;4.93;;;;;;;2.05;79.43;100714.84;4998066;28;20041;-79
2023/02/05 04:45:29;;;;;;;7.68;4.18;;;;;;;2.19;79.08;100716.16;5014223;28;20094;-79
2023/02/05 04:47:55;;;;;;;5.20;4.28;;;;;;;2.26;78.69;100694.34;5014506;28;20168;-79
2023/02/05 04:50:21;;;;;;;7.20;5.30;;;;;;;1.79;78.60;100698.09;5015553;28;20040;-80
2023/02/05 04:52:46;;;;;;;5.53;4.35;;;;;;;2.04;79.13;100699.19;5011889;28;20025;-81
2023/02/05 04:55:11;;;;;;;6.75;4.55;;;;;;;1.98;78.72;100705.06;4997393;28;20034;-79
2023/02/05 04:57:37;;;;;;;8.75;5.90;;;;;;;1.20;79.72;100708.19;5008055;28;20033;-79
2023/02/05 05:00:03;;;;;;;6.70;4.93;;;;;;;1.80;80.91;100714.72;5028974;28;20041;-80
2023/02/05 05:02:29;;;;;;;4.97;4.45;;;;;;;2.17;79.39;100708.41;5015743;28;20029;-80
2023/02/05 05:04:54;;;;;;;7.35;4.70;;;;;;;2.18;79.06;100703.97;5011525;28;20026;-80
2023/02/05 05:07:20;;;;;;;6.32;4.78;;;;;;;2.28;78.57;100704.72;4994038;28;20063;-80
2023/02/05 05:09:45;;;;;;;5.10;4.28;;;;;;;2.26;78.35;100699.63;5036484;28;20037;-79
2023/02/05 05:12:10;;;;;;;5.68;4.53;;;;;;;2.21;78.97;100706.28;5010791;28;20030;-80
2023/02/05 05:14:36;;;;;;;9.25;4.78;;;;;;;1.93;78.61;100704.66;5026091;28;20533;-79
2023/02/05 05:17:02;;;;;;;7.03;4.05;;;;;;;2.17;79.00;100691.78;5022091;28;20037;-79
2023/02/05 05:19:27;;;;;;;6.45;5.03;;;;;;;1.94;78.96;100693.19;5025378;28;20044;-79
2023/02/05 05:21:53;;;;;;;5.28;4.70;;;;;;;1.83;79.52;100688.13;5007479;28;20040;-80
2023/02/05 05:24:18;;;;;;;7.72;5.63;;;;;;;1.35;78.96;100699.72;4997520;28;20033;-80
2023/02/05 05:26:43;;;;;;;5.38;4.47;;;;;;;1.77;80.06;100681.63;5026664;28;20037;-79
2023/02/05 05:29:13;;;;;;;8.82;5.03;;;;;;;1.93;79.80;100681.81;5012888;28;20613;-79
2023/02/05 05:31:39;;;;;;;8.23;5.80;;;;;;;2.24;79.06;100669.13;5028331;28;20063;-80
2023/02/05 05:34:04;;;;;;;12.85;6.85;;;;;;;2.26;78.91;100682.97;5025477;28;20040;-79
2023/02/05 05:36:30;;;;;;;10.23;6.43;;;;;;;1.98;79.92;100676.94;5010527;28;20037;-80
2023/02/05 05:43:45;;;;;;;10.45;6.18;;;;;;;2.24;79.23;100669.13;5027604;28;20017;-80
2023/02/05 05:44:24;;;;;;;8.07;5.85;;;;;;;1.41;80.61;100677.25;5001117;28;20114;-79
2023/02/05 05:46:50;;;;;;;12.68;6.45;;;;;;;1.17;81.63;100684.81;4995386;28;20095;-80
2023/02/05 05:49:15;;;;;;;8.68;6.63;;;;;;;1.78;81.30;100661.41;5022110;28;20033;-80
2023/02/05 05:51:40;;;;;;;11.32;6.18;;;;;;;2.24;79.53;100683.13;5025797;28;20025;-80
2023/02/05 05:54:06;;;;;;;6.93;5.47;;;;;;;1.77;80.23;100686.09;5030342;28;20045;-80
2023/02/05 05:56:31;;;;;;;10.73;5.47;;;;;;;1.64;81.44;100675.06;5025471;28;20397;-80
2023/02/05 05:58:57;;;;;;;6.95;4.72;;;;;;;2.12;79.77;100683.47;5014418;28;20025;-81
2023/02/05 06:01:22;;;;;;;8.57;5.20;;;;;;;2.16;79.14;100682.22;5011938;28;20052;-80
2023/02/05 06:03:48;;;;;;;10.88;6.00;;;;;;;1.88;79.60;100663.00;5012207;28;20037;-80
2023/02/05 06:06:13;;;;;;;8.18;5.38;;;;;;;1.84;79.89;100663.44;5015311;28;20033;-79
2023/02/05 06:08:39;;;;;;;8.48;5.68;;;;;;;2.24;79.59;100674.41;5013043;28;20037;-79
2023/02/05 06:11:05;;;;;;;8.75;6.15;;;;;;;2.04;79.01;100683.41;5011347;28;20171;-80
2023/02/05 06:13:31;;;;;;;17.50;8.10;;;;;;;2.01;78.51;100674.00;5012091;28;20397;-79
2023/02/05 06:15:56;;;;;;;7.78;5.60;;;;;;;1.86;80.31;100664.94;5007968;28;20045;-80
2023/02/05 06:18:22;;;;;;;9.63;6.45;;;;;;;1.73;80.68;100658.38;5026809;28;20485;-79
2023/02/05 06:20:47;;;;;;;19.30;8.05;;;;;;;1.63;81.58;100660.25;5024765;28;20039;-79
2023/02/05 06:23:13;;;;;;;16.75;7.97;;;;;;;2.05;79.61;100649.00;5015256;28;20037;-79
2023/02/05 06:25:38;;;;;;;13.50;6.95;;;;;;;1.93;79.59;100650.22;5024571;28;20079;-80
2023/02/05 06:28:04;;;;;;;14.90;6.45;;;;;;;1.84;80.27;100659.00;5017578;28;20026;-81
2023/02/05 06:30:29;;;;;;;14.45;7.32;;;;;;;1.79;80.34;100645.44;5013874;28;20424;-80
2023/02/05 06:32:55;;;;;;;11.63;7.00;;;;;;;1.77;80.46;100642.13;5005278;28;20033;-80
2023/02/05 06:35:20;;;;;;;12.20;6.57;;;;;;;1.80;80.73;100643.66;5004408;28;20033;-80
2023/02/05 06:37:46;;;;;;;11.50;6.70;;;;;;;1.77;80.74;100650.03;5010050;28;20148;-79
2023/02/05 06:40:11;;;;;;;9.23;6.07;;;;;;;1.40;81.75;100631.69;5032458;28;20503;-79
2023/02/05 06:42:37;;;;;;;12.35;6.68;;;;;;;1.60;81.02;100636.84;5028936;28;20204;-79
2023/02/05 06:45:03;;;;;;;12.85;6.72;;;;;;;1.27;82.46;100623.31;4998338;28;20039;-79
2023/02/05 06:47:29;;;;;;;8.38;5.80;;;;;;;1.23;81.93;100619.31;5031187;28;20048;-79
2023/02/05 06:49:54;;;;;;;8.45;5.53;;;;;;;1.10;81.32;100653.00;5009854;28;20528;-79
2023/02/05 06:52:19;;;;;;;6.75;5.32;;;;;;;0.77;81.85;100645.63;5026818;28;20037;-79
2023/02/05 06:54:45;;;;;;;7.30;5.57;;;;;;;0.81;83.44;100639.09;4997107;28;20039;-80
2023/02/05 06:57:10;;;;;;;8.48;5.32;;;;;;;1.74;81.63;100639.81;5026065;28;20389;-79
2023/02/05 06:59:36;;;;;;;8.88;5.20;;;;;;;1.77;80.26;100636.06;5012103;28;20125;-79
2023/02/05 07:02:02;;;;;;;9.52;5.45;;;;;;;2.11;80.72;100650.22;5011419;28;20033;-79
2023/02/05 07:04:29;;;;;;;8.52;4.80;;;;;;;1.68;79.77;100635.16;5029039;28;20032;-79
2023/02/05 07:06:56;;;;;;;8.25;5.40;;;;;;;1.75;81.10;100638.81;5013598;28;20029;-80
2023/02/05 07:09:21;;;;;;;7.30;5.35;;;;;;;1.56;80.26;100635.47;5026969;28;20523;-80
2023/02/05 07:11:46;;;;;;;6.80;5.20;;;;;;;1.98;80.49;100634.81;5012486;28;20061;-81
2023/02/05 07:14:12;;;;;;;6.70;5.32;;;;;;;1.63;81.51;100621.59;5031162;28;20508;-80
2023/02/05 07:16:37;;;;;;;7.47;5.57;;;;;;;1.51;81.05;100625.41;5009770;28;20512;-80
2023/02/05 07:19:02;;;;;;;6.82;5.55;;;;;;;1.41;81.36;100617.56;5014716;28;20026;-79
2023/02/05 07:21:28;;;;;;;7.47;5.53;;;;;;;1.45;82.20;100608.41;5019546;28;20544;-80
2023/02/05 07:23:53;;;;;;;7.88;5.45;;;;;;;1.48;81.50;100594.97;5025289;28;20039;-79
2023/02/05 07:26:19;;;;;;;8.20;5.20;;;;;;;1.20;82.17;100566.19;5026560;28;20060;-79
2023/02/05 07:28:44;;;;;;;10.30;4.82;;;;;;;1.06;82.79;100572.75;5025867;28;20626;-79
2023/02/05 07:31:16;;;;;;;7.68;5.50;;;;;;;0.73;82.32;100579.38;4993746;28;20371;-79
2023/02/05 07:33:43;;;;;;;6.60;5.18;;;;;;;1.00;83.84;100575.16;5021247;28;20432;-79
2023/02/05 07:36:11;;;;;;;7.15;4.95;;;;;;;1.10;83.59;100571.50;5008809;28;20049;-79
2023/02/05 07:38:37;;;;;;;9.30;6.45;;;;;;;1.22;83.25;100564.25;5021534;28;20112;-79
2023/02/05 07:41:07;;;;;;;6.35;4.97;;;;;;;1.82;82.54;100571.47;4993798;28;20041;-79
2023/02/05 07:43:33;;;;;;;8.18;4.45;;;;;;;2.03;81.04;100576.44;5007878;28;20132;-79
2023/02/05 07:46:01;;;;;;;5.68;4.53;;;;;;;2.24;80.65;100576.94;5029954;28;20041;-79
2023/02/05 07:48:27;;;;;;;6.88;4.85;;;;;;;2.12;80.24;100583.41;5027884;28;20112;-79
2023/02/05 07:50:52;;;;;;;5.95;4.10;;;;;;;2.02;80.41;100593.19;5009249;28;20116;-80
2023/02/05 07:53:18;;;;;;;6.55;4.38;;;;;;;1.90;81.30;100597.84;5024067;28;20677;-80
2023/02/05 07:55:44;;;;;;;5.85;4.60;;;;;;;2.19;80.26;100603.72;5024150;28;20752;-81
2023/02/05 07:58:09;;;;;;;4.50;3.88;;;;;;;2.45;79.86;100600.28;5009626;28;20030;-81
2023/02/05 08:00:35;;;;;;;5.20;3.58;;;;;;;2.29;80.20;100586.00;5005558;28;20055;-79
2023/02/05 08:03:03;;;;;;;4.78;4.30;;;;;;;1.93;80.56;100591.47;5025434;28;20033;-80
2023/02/05 08:05:28;;;;;;;6.65;4.47;;;;;;;2.19;79.96;100592.34;5005813;28;21593;-80
2023/02/05 08:07:54;;;;;;;7.57;4.97;;;;;;;1.94;80.14;100583.44;5025865;28;20033;-80
2023/02/05 08:10:19;;;;;;;5.47;4.00;;;;;;;2.22;80.66;100606.06;5025030;28;20061;-80
2023/02/05 08:12:45;;;;;;;8.38;5.60;;;;;;;1.86;80.65;100583.34;5008265;28;20128;-81
2023/02/05 08:15:10;;;;;;;9.77;7.32;;;;;;;1.52;81.25;100596.31;5008460;28;20237;-80
2023/02/05 08:17:35;;;;;;;10.68;5.47;;;;;;;1.65;82.64;100600.41;5021637;28;20057;-80
2023/02/05 08:20:05;;;;;;;13.18;6.97;;;;;;;1.13;82.09;100618.53;5005058;28;20394;-80
2023/02/05 08:22:33;;;;;;;8.38;5.38;;;;;;;1.72;83.29;100594.41;5005405;28;20590;-80
2023/02/05 08:24:58;;;;;;;7.85;5.03;;;;;;;1.79;82.94;100579.66;5003935;28;20025;-80
2023/02/05 08:27:23;;;;;;;8.55;5.43;;;;;;;2.03;81.44;100592.22;5025117;28;20488;-80
2023/02/05 08:29:49;;;;;;;8.63;5.72;;;;;;;2.01;81.39;100583.66;5026559;28;20408;-80
2023/02/05 08:32:14;;;;;;;7.95;5.70;;;;;;;2.11;81.09;100590.50;5025823;28;20029;-82
2023/02/05 08:34:39;;;;;;;5.80;5.18;;;;;;;1.90;81.37;100571.53;4995863;28;20502;-80
2023/02/05 08:37:05;;;;;;;8.30;5.93;;;;;;;1.77;81.30;100578.97;4994162;28;20044;-81
2023/02/05 08:39:30;;;;;;;7.53;5.13;;;;;;;1.66;81.77;100568.66;5012011;28;20045;-81
2023/02/05 08:41:56;;;;;;;8.88;5.55;;;;;;;2.04;81.84;100578.91;5015300;28;20504;-81
2023/02/05 08:44:21;;;;;;;6.57;4.78;;;;;;;2.32;81.09;100576.16;5027113;28;20037;-81
2023/02/05 08:46:46;;;;;;;7.97;5.55;;;;;;;2.41;81.12;100580.50;5009900;28;20048;-80
2023/02/05 08:49:12;;;;;;;9.18;4.95;;;;;;;2.17;81.16;100587.25;5011732;28;20042;-81
2023/02/05 08:51:37;;;;;;;8.48;6.90;;;;;;;2.23;80.65;100570.81;5003522;28;20041;-81
2023/02/05 08:54:04;;;;;;;15.60;9.00;;;;;;;2.25;80.01;100581.19;5011332;28;20068;-81
2023/02/05 08:56:30;;;;;;;10.20;5.95;;;;;;;2.63;80.13;100591.38;5027297;28;20040;-81
2023/02/05 08:58:56;;;;;;;12.00;6.93;;;;;;;2.26;80.40;100569.69;5012426;28;20032;-82
2023/02/05 09:01:22;;;;;;;8.75;6.07;;;;;;;2.40;80.29;100584.97;5021295;28;20025;-81
2023/02/05 09:03:47;;;;;;;13.43;7.03;;;;;;;2.35;80.64;100581.97;5006111;28;20500;-82
2023/02/05 09:06:14;;;;;;;9.38;6.88;;;;;;;2.09;81.57;100587.19;5022717;28;20033;-81
2023/02/05 09:08:40;;;;;;;10.05;6.50;;;;;;;1.70;82.14;100583.19;5025617;28;20432;-82
2023/02/05 09:11:06;;;;;;;10.50;7.18;;;;;;;2.08;81.73;100568.88;5029862;28;20048;-82
2023/02/05 09:13:32;;;;;;;11.13;6.93;;;;;;;2.48;80.53;100576.28;5020553;28;20090;-81
2023/02/05 09:15:58;;;;;;;13.88;8.32;;;;;;;2.31;80.00;100582.41;5024417;28;20421;-81
2023/02/05 09:18:23;;;;;;;12.88;7.47;;;;;;;2.18;81.08;100567.00;5003151;28;20055;-83
2023/02/05 09:20:50;;;;;;;10.52;7.18;;;;;;;1.63;81.25;100576.03;4987010;28;20088;-83
2023/02/05 09:23:18;;;;;;;9.60;6.85;;;;;;;1.86;81.67;100577.25;5021319;28;20029;-83
2023/02/05 09:25:43;;;;;;;10.98;7.47;;;;;;;1.64;82.14;100567.19;5005111;28;20119;-82
2023/02/05 09:28:11;;;;;;;12.45;6.95;;;;;;;2.07;81.45;100567.25;5014264;28;20478;-82
2023/02/05 09:30:43;;;;;;;13.68;7.00;;;;;;;1.18;83.21;100574.22;5016499;28;20033;-83
2023/02/05 09:33:09;;;;;;;9.43;6.72;;;;;;;1.65;83.33;100567.03;5033688;28;20044;-83
2023/02/05 09:35:35;;;;;;;9.45;6.57;;;;;;;1.14;84.02;100550.97;5029264;28;20029;-82
2023/02/05 09:38:02;;;;;;;12.60;7.10;;;;;;;1.24;84.04;100557.88;5026864;28;20029;-81
2023/02/05 09:40:39;;;;;;;10.30;6.32;;;;;;;1.78;84.81;100566.63;5016669;28;20037;-83
2023/02/05 09:43:39;;;;;;;8.73;6.75;;;;;;;1.36;85.32;100566.38;5025456;28;20543;-82
2023/02/05 09:46:26;;;;;;;10.13;6.72;;;;;;;1.16;84.84;100567.44;5012693;28;20039;-82
2023/02/05 09:49:14;;;;;;;16.95;8.07;;;;;;;0.74;85.99;100580.22;5012106;28;20045;-82
2023/02/05 09:51:52;;;;;;;7.97;6.30;;;;;;;1.16;87.04;100557.75;5024965;28;20033;-83
2023/02/05 09:54:27;;;;;;;9.90;6.28;;;;;;;1.92;84.53;100558.22;5022924;28;20021;-83
2023/02/05 09:56:59;;;;;;;7.18;5.72;;;;;;;1.82;84.80;100562.72;5028635;28;20548;-83
2023/02/05 09:59:27;;;;;;;8.38;5.90;;;;;;;1.86;84.99;100558.81;5026307;28;20033;-82
2023/02/05 10:01:58;;;;;;;11.13;5.82;;;;;;;2.16;83.53;100566.34;5022659;28;20030;-85
2023/02/05 10:04:26;;;;;;;8.95;6.18;;;;;;;2.45;82.53;100566.03;5009992;28;20515;-82
2023/02/05 10:07:00;;;;;;;10.55;6.65;;;;;;;2.54;82.13;100562.47;5027010;28;20022;-82
2023/02/05 10:09:38;;;;;;;12.70;7.75;;;;;;;2.52;81.61;100569.72;5029952;28;20509;-82
2023/02/05 10:12:15;;;;;;;12.77;7.75;;;;;;;2.16;83.02;100559.25;5014989;28;20036;-83
2023/02/05 10:15:02;;;;;;;18.25;11.00;;;;;;;1.95;83.10;100561.38;5030466;28;20027;-81
2023/02/05 10:17:59;;;;;;;10.40;7.70;;;;;;;1.43;84.44;100554.28;5025434;28;20083;-81
2023/02/05 10:20:24;;;;;;;;;;;;;;;1.48;85.46;100555.50;5022859;28;20029;-80
2023/02/05 10:23:14;;;;;;;9.13;7.93;;;;;;;1.01;85.87;100567.09;5028180;28;19923;-82
2023/02/05 10:25:49;;;;;;;10.25;7.10;;;;;;;1.95;84.59;100557.91;5028205;28;20032;-81
2023/02/05 10:28:45;;;;;;;15.32;9.05;;;;;;;1.15;85.60;100564.00;5015109;28;20030;-80
2023/02/05 10:31:40;;;;;;;12.00;7.80;;;;;;;1.87;84.92;100548.16;5026576;28;20017;-81
2023/02/05 10:34:11;;;;;;;12.40;8.88;;;;;;;1.36;85.19;100550.59;5001000;28;20064;-81
2023/02/05 10:36:37;;;;;;;13.85;8.75;;;;;;;1.48;85.64;100542.34;5031216;28;20053;-81
2023/02/05 10:39:13;;;;;;;13.00;8.77;;;;;;;1.53;85.56;100526.94;4999913;28;20033;-81
2023/02/05 10:41:43;;;;;;;15.18;8.85;;;;;;;1.80;85.85;100541.00;5031143;28;20544;-81
2023/02/05 10:44:15;;;;;;;10.77;7.60;;;;;;;1.56;85.45;100524.97;5015111;28;20556;-82
2023/02/05 10:46:42;;;;;;;12.65;9.02;;;;;;;1.63;85.55;100536.56;5032658;28;20029;-81
2023/02/05 10:49:26;;;;;;;11.23;7.65;;;;;;;1.63;85.40;100520.78;5031192;28;20038;-80
2023/02/05 10:51:52;;;;;;;14.68;8.95;;;;;;;1.70;86.03;100533.19;5025681;28;20033;-81
2023/02/05 10:54:34;;;;;;;15.63;8.98;;;;;;;1.86;85.21;100530.69;5030502;28;20044;-81
2023/02/05 10:57:00;;;;;;;13.98;9.48;;;;;;;1.68;84.86;100522.00;5031741;28;20029;-82
2023/02/05 10:59:29;;;;;;;14.23;7.47;;;;;;;2.23;84.58;100539.22;5031979;28;20484;-82
2023/02/05 11:01:59;;;;;;;13.05;9.82;;;;;;;2.14;83.94;100520.91;5029408;28;20030;-82
2023/02/05 11:05:01;;;;;;;11.68;7.95;;;;;;;2.37;84.24;100531.75;5031320;28;20026;-81
2023/02/05 11:07:34;;;;;;;26.63;11.40;;;;;;;1.93;83.48;100529.13;4932811;28;20081;-82
2023/02/05 11:10:19;;;;;;;14.30;8.73;;;;;;;2.29;83.82;100532.53;5020783;28;20051;-82
2023/02/05 11:12:48;;;;;;;18.65;8.70;;;;;;;1.24;85.66;100515.78;5028791;28;20120;-82
2023/02/05 11:15:21;;;;;;;11.73;8.57;;;;;;;2.05;86.34;100532.34;5032460;28;20041;-82
2023/02/05 11:18:18;;;;;;;12.82;9.13;;;;;;;1.78;85.83;100529.78;5012657;28;20291;-82
2023/02/05 11:20:55;;;;;;;15.95;10.02;;;;;;;1.87;85.84;100532.34;5024742;28;20057;-82
2023/02/05 11:23:23;;;;;;;13.60;9.68;;;;;;;1.51;85.67;100530.69;5028648;28;20049;-81
2023/02/05 11:25:56;;;;;;;14.90;10.93;;;;;;;1.41;86.48;100541.28;5009254;28;20385;-82
2023/02/05 11:28:28;;;;;;;14.77;10.43;;;;;;;0.99;87.22;100547.19;5028733;28;20754;-81
2023/02/05 11:30:54;;;;;;;14.55;8.98;;;;;;;1.27;88.71;100526.00;5030499;28;20029;-82
2023/02/05 11:33:25;;;;;;;15.35;11.63;;;;;;;1.44;87.82;100537.53;5030382;28;20037;-82
2023/02/05 11:35:55;;;;;;;14.52;10.52;;;;;;;1.41;87.79;100527.31;5031735;28;20032;-81
2023/02/05 11:38:29;;;;;;;17.23;8.77;;;;;;;2.06;86.30;100536.63;5026022;28;20034;-82
2023/02/05 11:40:57;;;;;;;15.07;10.57;;;;;;;1.53;86.33;100540.09;5017667;28;20064;-83
2023/02/05 11:43:33;;;;;;;14.52;10.48;;;;;;;2.02;86.19;100532.63;5034545;28;20362;-83
2023/02/05 11:46:00;;;;;;;13.32;9.10;;;;;;;1.56;87.18;100531.06;5033684;28;20152;-83